Time;durP1;ratioP1;P1;durP2;ratioP2;P2;SDS_P1;SDS_P2;PMS_P1;PMS_P2;Temp;Humidity;BMP_temperature;BMP_pressure;BME280_temperature;BME280_humidity;BME280_pressure;Samples;Min_cycle;Max_cycle;Signal;HPM_P1;HPM_P2
2022/01/07 00:01:05;;;;;;;0.30;0.30;;;;;;;23.27;6.28;98747.03;5052959;28;20096;-67
2022/01/07 00:03:31;;;;;;;0.55;0.40;;;;;;;23.28;6.27;98754.09;5053171;28;20025;-67
2022/01/07 00:05:58;;;;;;;0.30;0.30;;;;;;;23.28;6.33;98759.53;5053333;28;20028;-67
2022/01/07 00:08:23;;;;;;;0.40;0.40;;;;;;;23.26;5.99;98748.16;5053485;28;20041;-67
2022/01/07 00:10:49;;;;;;;0.40;0.40;;;;;;;23.27;5.99;98746.22;5053151;28;20048;-67
2022/01/07 00:13:14;;;;;;;0.43;0.43;;;;;;;23.27;6.12;98740.78;5053441;28;20383;-67
2022/01/07 00:15:40;;;;;;;0.68;0.50;;;;;;;23.26;5.93;98750.88;5056695;28;20028;-67
2022/01/07 00:18:06;;;;;;;0.30;0.30;;;;;;;23.27;5.88;98757.13;5056677;28;20041;-67
2022/01/07 00:20:31;;;;;;;0.57;0.50;;;;;;;23.26;6.11;98753.59;5056665;28;20043;-67
2022/01/07 00:22:57;;;;;;;0.40;0.40;;;;;;;23.24;6.03;98753.91;5056602;28;20029;-69
2022/01/07 00:25:23;;;;;;;0.30;0.30;;;;;;;23.24;5.97;98751.19;5056496;28;20025;-68
2022/01/07 00:27:49;;;;;;;0.45;0.45;;;;;;;23.24;5.80;98755.84;5056482;28;20035;-67
2022/01/07 00:30:15;;;;;;;0.45;0.40;;;;;;;23.25;5.96;98752.81;5056793;28;20025;-68
2022/01/07 00:32:40;;;;;;;0.40;0.40;;;;;;;23.23;5.76;98763.22;5056709;28;20025;-68
2022/01/07 00:35:06;;;;;;;0.30;0.30;;;;;;;23.24;6.01;98761.28;5071290;28;20024;-68
2022/01/07 00:37:31;;;;;;;0.32;0.32;;;;;;;23.23;5.90;98768.66;5076436;28;20032;-67
2022/01/07 00:39:57;;;;;;;0.40;0.40;;;;;;;23.23;6.02;98762.41;5076695;28;20021;-68
2022/01/07 00:42:22;;;;;;;0.30;0.30;;;;;;;23.23;5.85;98762.41;5076506;28;20028;-68
2022/01/07 00:44:48;;;;;;;0.40;0.30;;;;;;;23.22;6.04;98766.25;5076248;28;20509;-67
2022/01/07 00:47:13;;;;;;;0.80;0.50;;;;;;;23.23;5.84;98752.31;5076134;28;20082;-68
2022/01/07 00:49:38;;;;;;;0.30;0.30;;;;;;;23.22;5.81;98756.16;5076213;28;20031;-67
2022/01/07 00:52:04;;;;;;;0.40;0.40;;;;;;;23.22;5.76;98747.97;5076431;28;20058;-67
2022/01/07 00:54:30;;;;;;;0.30;0.30;;;;;;;23.22;5.94;98755.34;5076804;28;20028;-67
2022/01/07 00:56:55;;;;;;;0.32;0.32;;;;;;;23.22;5.78;98760.81;5076051;28;20031;-67
2022/01/07 00:59:21;;;;;;;0.40;0.40;;;;;;;23.23;5.89;98765.13;5075041;28;20118;-67
2022/01/07 01:01:46;;;;;;;0.40;0.40;;;;;;;23.22;5.85;98764.31;5075899;28;20474;-67
2022/01/07 01:04:12;;;;;;;0.45;0.45;;;;;;;23.23;5.80;98759.66;5075084;28;20048;-67
2022/01/07 01:06:40;;;;;;;0.38;0.38;;;;;;;23.22;5.69;98761.59;5076253;28;20032;-67
2022/01/07 01:09:08;;;;;;;0.40;0.30;;;;;;;23.22;5.76;98758.88;5076050;28;20082;-67
2022/01/07 01:11:35;;;;;;;0.38;0.38;;;;;;;23.22;5.95;98766.25;5076254;28;20029;-68
2022/01/07 01:14:00;;;;;;;0.50;0.50;;;;;;;23.22;5.94;98771.69;5075969;28;20166;-68
2022/01/07 01:16:26;;;;;;;0.40;0.40;;;;;;;23.22;5.83;98771.69;5075739;28;20115;-68
2022/01/07 01:18:51;;;;;;;0.30;0.30;;;;;;;23.21;5.80;98767.34;5076418;28;20020;-68
2022/01/07 01:21:16;;;;;;;0.30;0.30;;;;;;;23.21;5.82;98770.06;5076436;28;20040;-68
2022/01/07 01:23:45;;;;;;;0.40;0.40;;;;;;;23.22;5.83;98771.69;5075917;28;20463;-68
2022/01/07 01:26:13;;;;;;;0.40;0.40;;;;;;;23.20;5.82;98766.56;5074910;28;20024;-68
2022/01/07 01:28:39;;;;;;;0.50;0.50;;;;;;;23.20;5.75;98774.72;5075986;28;20502;-68
2022/01/07 01:31:05;;;;;;;0.30;0.30;;;;;;;23.20;5.62;98769.28;5076123;28;20032;-68
2022/01/07 01:33:30;;;;;;;0.57;0.38;;;;;;;23.20;5.77;98774.72;5076052;28;20073;-68
2022/01/07 01:35:55;;;;;;;0.50;0.40;;;;;;;23.21;5.77;98780.97;5056689;28;20440;-68
2022/01/07 01:38:21;;;;;;;0.50;0.40;;;;;;;23.21;5.88;98786.44;5058289;28;20031;-68
2022/01/07 01:40:46;;;;;;;0.35;0.35;;;;;;;23.21;5.69;98791.88;5056193;28;20087;-67
2022/01/07 01:43:11;;;;;;;0.40;0.40;;;;;;;23.22;5.71;98798.94;5055500;28;20029;-67
2022/01/07 01:45:37;;;;;;;0.38;0.38;;;;;;;23.21;5.80;98800.06;5055142;28;20434;-67
2022/01/07 01:48:03;;;;;;;0.50;0.50;;;;;;;23.22;5.75;98798.94;5055429;28;20033;-67
2022/01/07 01:50:28;;;;;;;0.35;0.35;;;;;;;23.21;5.72;98798.13;5055083;28;20463;-67
2022/01/07 01:52:54;;;;;;;0.40;0.40;;;;;;;23.21;5.94;98802.78;5055345;28;20033;-67
2022/01/07 01:55:20;;;;;;;0.50;0.50;;;;;;;23.19;5.89;98799.56;5054911;28;20036;-67
2022/01/07 01:57:46;;;;;;;0.30;0.30;;;;;;;23.21;5.65;98791.88;5054936;28;20033;-67
2022/01/07 02:00:11;;;;;;;0.40;0.40;;;;;;;23.20;5.85;98785.63;5055239;28;20056;-68
2022/01/07 02:02:37;;;;;;;0.32;0.32;;;;;;;23.20;5.76;98791.09;5055183;28;20112;-68
2022/01/07 02:05:03;;;;;;;0.30;0.30;;;;;;;23.20;5.74;98795.75;5054731;28;20108;-67
2022/01/07 02:07:28;;;;;;;0.30;0.30;;;;;;;23.20;5.67;98801.19;5055040;28;20098;-67
2022/01/07 02:09:54;;;;;;;0.40;0.40;;;;;;;23.21;5.76;98791.88;5037149;28;20353;-66
2022/01/07 02:12:20;;;;;;;0.40;0.40;;;;;;;23.20;5.95;98798.47;5054584;28;20379;-67
2022/01/07 02:14:52;;;;;;;0.30;0.30;;;;;;;23.22;6.01;98798.94;5054476;28;20036;-67
2022/01/07 02:17:17;;;;;;;0.30;0.30;;;;;;;23.20;5.94;98795.75;5054602;28;20166;-67
2022/01/07 02:19:43;;;;;;;0.30;0.30;;;;;;;23.21;5.83;98787.22;5054731;28;20031;-67
2022/01/07 02:22:08;;;;;;;0.40;0.40;;;;;;;23.21;5.82;98798.13;5054831;28;20029;-67
2022/01/07 02:24:35;;;;;;;0.40;0.40;;;;;;;23.20;5.71;98796.53;5054689;28;20447;-67
2022/01/07 02:27:00;;;;;;;0.40;0.40;;;;;;;23.20;5.94;98804.72;5054259;28;20442;-66
2022/01/07 02:29:26;;;;;;;0.40;0.40;;;;;;;23.21;5.82;98800.06;5054195;28;20025;-67
2022/01/07 02:31:52;;;;;;;0.30;0.30;;;;;;;23.20;5.77;98793.00;5053280;28;20033;-67
2022/01/07 02:34:17;;;;;;;0.30;0.30;;;;;;;23.19;5.88;98794.13;5058824;28;20021;-67
2022/01/07 02:36:42;;;;;;;0.40;0.40;;;;;;;23.21;5.89;98800.06;5074098;28;20029;-67
2022/01/07 02:39:08;;;;;;;0.30;0.30;;;;;;;23.20;5.84;98801.97;5074311;28;20024;-67
2022/01/07 02:41:33;;;;;;;0.30;0.30;;;;;;;23.21;5.84;98802.78;5075034;28;20437;-67
2022/01/07 02:43:59;;;;;;;0.63;0.40;;;;;;;23.22;6.08;98807.13;5074330;28;20496;-67
2022/01/07 02:46:24;;;;;;;0.40;0.40;;;;;;;23.22;5.93;98801.69;5073858;28;20029;-67
2022/01/07 02:48:49;;;;;;;0.30;0.30;;;;;;;23.22;5.89;98809.84;5074188;28;20024;-67
2022/01/07 02:51:15;;;;;;;0.40;0.40;;;;;;;23.22;5.89;98807.13;5073866;28;20441;-67
2022/01/07 02:53:40;;;;;;;0.40;0.40;;;;;;;23.21;6.13;98802.78;5074052;28;20035;-67
2022/01/07 02:56:05;;;;;;;0.30;0.30;;;;;;;23.21;5.80;98808.22;5074002;28;20032;-67
2022/01/07 02:58:31;;;;;;;0.40;0.40;;;;;;;23.21;5.68;98805.50;5073968;28;20406;-67
2022/01/07 03:00:56;;;;;;;0.30;0.30;;;;;;;23.21;5.93;98814.47;5073920;28;20024;-67
2022/01/07 03:03:22;;;;;;;0.40;0.40;;;;;;;23.22;5.80;98812.59;5073962;28;20021;-67
2022/01/07 03:05:47;;;;;;;0.40;0.40;;;;;;;23.24;5.75;98810.34;5073878;28;20028;-67
2022/01/07 03:08:12;;;;;;;0.63;0.50;;;;;;;23.26;5.89;98819.00;5073821;28;20367;-67
2022/01/07 03:10:38;;;;;;;0.30;0.30;;;;;;;23.28;5.71;98819.50;5073944;28;20467;-68
2022/01/07 03:13:03;;;;;;;0.30;0.30;;;;;;;23.30;5.77;98816.47;5073807;28;20451;-67
2022/01/07 03:15:29;;;;;;;0.30;0.30;;;;;;;23.29;6.07;98815.66;5073653;28;20032;-67
2022/01/07 03:17:55;;;;;;;0.50;0.50;;;;;;;23.34;5.80;98815.53;5073342;28;20045;-67
2022/01/07 03:20:20;;;;;;;0.38;0.38;;;;;;;23.34;5.95;98815.53;5073592;28;20324;-67
2022/01/07 03:22:46;;;;;;;0.35;0.35;;;;;;;23.35;5.96;98809.00;5073391;28;20379;-67
2022/01/07 03:25:12;;;;;;;0.30;0.30;;;;;;;23.36;5.76;98812.50;5073665;28;20025;-67
2022/01/07 03:27:37;;;;;;;0.30;0.30;;;;;;;23.37;5.71;98806.75;5073627;28;20494;-67
2022/01/07 03:30:04;;;;;;;0.45;0.45;;;;;;;23.38;5.92;98802.91;5073568;28;20068;-67
2022/01/07 03:32:29;;;;;;;0.82;0.40;;;;;;;23.39;5.96;98804.50;5073528;28;20062;-67
2022/01/07 03:34:55;;;;;;;0.30;0.30;;;;;;;23.39;5.86;98799.06;5065253;28;20585;-67
2022/01/07 03:37:20;;;;;;;0.55;0.52;;;;;;;23.40;5.94;98805.31;5053417;28;20028;-67
2022/01/07 03:39:48;;;;;;;0.40;0.40;;;;;;;23.38;5.75;98802.91;5053493;28;20032;-66
2022/01/07 03:42:14;;;;;;;0.40;0.40;;;;;;;23.36;5.96;98802.41;5053088;28;20025;-66
2022/01/07 03:44:39;;;;;;;0.35;0.35;;;;;;;23.36;5.82;98799.69;5053450;28;20039;-68
2022/01/07 03:47:05;;;;;;;0.32;0.32;;;;;;;23.36;5.81;98804.34;5053173;28;20021;-67
2022/01/07 03:49:30;;;;;;;0.50;0.50;;;;;;;23.35;5.99;98799.97;5052643;28;20048;-67
2022/01/07 03:51:56;;;;;;;0.40;0.40;;;;;;;23.34;5.96;98795.66;5053377;28;20074;-67
2022/01/07 03:54:21;;;;;;;0.40;0.40;;;;;;;23.35;5.77;98800.81;5053349;28;20021;-67
2022/01/07 03:56:46;;;;;;;0.40;0.40;;;;;;;23.35;6.07;98802.72;5052931;28;20475;-67
2022/01/07 03:59:12;;;;;;;0.30;0.30;;;;;;;23.31;5.93;98788.91;5053181;28;20036;-67
2022/01/07 04:01:37;;;;;;;0.40;0.40;;;;;;;23.33;6.09;98792.13;5052963;28;20074;-66
2022/01/07 04:04:03;;;;;;;0.38;0.38;;;;;;;23.34;6.17;98803.84;5053125;28;20029;-67
2022/01/07 04:06:28;;;;;;;0.40;0.40;;;;;;;23.33;5.96;98808.47;5053156;28;20025;-67
2022/01/07 04:08:54;;;;;;;0.63;0.50;;;;;;;23.35;6.25;98800.81;5052755;28;20605;-67
2022/01/07 04:11:19;;;;;;;0.30;0.30;;;;;;;23.34;6.17;98804.63;5052971;28;20073;-67
2022/01/07 04:13:44;;;;;;;0.40;0.40;;;;;;;23.38;6.28;98799.38;5052988;28;20021;-67
2022/01/07 04:16:11;;;;;;;0.40;0.40;;;;;;;23.38;6.19;98800.16;5052390;28;20048;-67
2022/01/07 04:18:36;;;;;;;0.38;0.38;;;;;;;23.39;6.13;98799.06;5052385;28;20037;-67
2022/01/07 04:21:01;;;;;;;0.30;0.30;;;;;;;23.42;6.21;98797.63;5052764;28;20444;-67
2022/01/07 04:23:27;;;;;;;0.50;0.40;;;;;;;23.44;6.25;98807.13;5051478;28;20079;-68
2022/01/07 04:25:56;;;;;;;0.38;0.38;;;;;;;23.47;6.42;98810.31;5052684;28;20033;-69
2022/01/07 04:28:21;;;;;;;0.30;0.30;;;;;;;23.48;6.29;98803.78;5052773;28;20464;-68
2022/01/07 04:30:47;;;;;;;0.40;0.40;;;;;;;23.52;6.51;98800.09;5051557;28;20033;-67
2022/01/07 04:33:14;;;;;;;0.40;0.40;;;;;;;23.57;6.56;98788.25;5056881;28;20028;-67
2022/01/07 04:35:40;;;;;;;0.30;0.30;;;;;;;23.58;6.43;98793.41;5075595;28;20463;-68
2022/01/07 04:38:09;;;;;;;0.28;0.28;;;;;;;23.60;6.65;98787.63;5076169;28;20031;-68
2022/01/07 04:40:34;;;;;;;0.40;0.40;;;;;;;23.61;6.58;98789.22;5072986;28;20120;-68
2022/01/07 04:43:04;;;;;;;0.30;0.30;;;;;;;23.67;6.60;98809.78;5073011;28;20447;-68
2022/01/07 04:45:29;;;;;;;0.43;0.40;;;;;;;23.74;6.64;98801.16;5071460;28;20032;-68
2022/01/07 04:47:55;;;;;;;0.30;0.30;;;;;;;23.75;6.68;98817.22;5072589;28;20463;-68
2022/01/07 04:50:21;;;;;;;1.42;0.50;;;;;;;23.78;6.58;98807.59;5072657;28;20029;-68
2022/01/07 04:52:46;;;;;;;1.88;0.50;;;;;;;23.80;6.68;98800.72;5072535;28;20049;-67
2022/01/07 04:55:16;;;;;;;0.43;0.43;;;;;;;23.77;6.85;98820.44;5072198;28;20443;-68
2022/01/07 04:57:42;;;;;;;0.40;0.40;;;;;;;23.77;6.74;98825.91;5072082;28;20470;-68
2022/01/07 05:00:08;;;;;;;0.50;0.50;;;;;;;23.76;6.61;98823.47;5074058;28;20116;-68
2022/01/07 05:02:33;;;;;;;0.50;0.50;;;;;;;23.77;7.05;98825.91;5075234;28;20034;-68
2022/01/07 05:04:59;;;;;;;0.30;0.30;;;;;;;23.79;6.81;98820.94;5074740;28;20039;-68
2022/01/07 05:07:24;;;;;;;0.40;0.40;;;;;;;23.80;6.72;98822.53;5076143;28;20032;-67
2022/01/07 05:09:49;;;;;;;0.40;0.40;;;;;;;23.87;6.80;98829.50;5076037;28;20143;-67
2022/01/07 05:12:15;;;;;;;0.40;0.38;;;;;;;23.88;6.61;98833.84;5075615;28;20536;-68
2022/01/07 05:14:40;;;;;;;0.40;0.40;;;;;;;23.87;6.86;98834.94;5074154;28;20024;-68
2022/01/07 05:17:06;;;;;;;0.47;0.40;;;;;;;23.84;6.76;98841.06;5075393;28;20396;-67
2022/01/07 05:19:31;;;;;;;0.40;0.40;;;;;;;23.87;6.99;98840.41;5075437;28;20459;-68
2022/01/07 05:21:56;;;;;;;0.40;0.40;;;;;;;23.92;6.89;98848.44;5076150;28;20086;-67
2022/01/07 05:24:22;;;;;;;0.40;0.40;;;;;;;23.95;6.68;98842.38;5075495;28;20021;-68
2022/01/07 05:26:47;;;;;;;0.38;0.38;;;;;;;23.98;6.93;98848.00;5075299;28;20029;-67
2022/01/07 05:29:13;;;;;;;0.85;0.30;;;;;;;24.03;6.89;98860.72;5075343;28;20097;-68
2022/01/07 05:31:38;;;;;;;0.40;0.40;;;;;;;24.02;6.94;98853.63;5075653;28;20029;-67
2022/01/07 05:34:04;;;;;;;0.30;0.30;;;;;;;24.07;6.85;98860.88;5075603;28;20430;-67
2022/01/07 05:36:29;;;;;;;0.60;0.50;;;;;;;24.11;6.78;98864.59;5058697;28;20457;-68
2022/01/07 05:38:54;;;;;;;0.40;0.40;;;;;;;24.10;7.05;98863.78;5056307;28;20036;-69
2022/01/07 05:41:20;;;;;;;0.45;0.30;;;;;;;24.12;6.82;98871.66;5055487;28;20025;-69
2022/01/07 05:43:46;;;;;;;0.52;0.43;;;;;;;24.16;6.72;98870.72;5055450;28;20505;-68
2022/01/07 05:46:14;;;;;;;0.60;0.50;;;;;;;24.16;7.03;98873.47;5055085;28;20055;-68
2022/01/07 05:48:43;;;;;;;1.55;0.50;;;;;;;24.15;7.18;98880.03;5055702;28;20033;-69
2022/01/07 05:51:08;;;;;;;0.40;0.40;;;;;;;24.15;6.98;98873.78;5055598;28;20104;-70
2022/01/07 05:53:34;;;;;;;3.13;0.45;;;;;;;24.21;7.11;98877.94;5055251;28;20032;-68
2022/01/07 05:55:59;;;;;;;0.93;0.60;;;;;;;24.25;6.92;98878.13;5054695;28;20032;-68
2022/01/07 05:58:25;;;;;;;0.73;0.50;;;;;;;24.25;7.10;98878.13;5055514;28;20029;-68
2022/01/07 06:00:50;;;;;;;0.77;0.50;;;;;;;24.16;6.97;98887.09;5054853;28;20029;-68
2022/01/07 06:03:15;;;;;;;0.40;0.35;;;;;;;24.10;6.86;98888.34;5054830;28;20033;-68
2022/01/07 06:05:41;;;;;;;0.70;0.60;;;;;;;24.02;6.92;98889.09;5055143;28;20025;-68
2022/01/07 06:08:06;;;;;;;0.93;0.43;;;;;;;24.02;6.76;98897.28;5054928;28;20071;-68
2022/01/07 06:10:32;;;;;;;0.52;0.50;;;;;;;24.03;7.15;98898.13;5055458;28;20444;-69
2022/01/07 06:12:57;;;;;;;1.00;0.47;;;;;;;24.10;6.71;98910.19;5053411;28;20079;-69
2022/01/07 06:15:22;;;;;;;0.40;0.40;;;;;;;24.00;6.77;98910.44;5054978;28;20040;-70
2022/01/07 06:17:48;;;;;;;0.47;0.45;;;;;;;24.17;6.88;98907.81;5054441;28;20048;-69
2022/01/07 06:20:13;;;;;;;0.52;0.50;;;;;;;24.25;6.83;98913.59;5054778;28;20494;-69
2022/01/07 06:22:39;;;;;;;0.95;0.40;;;;;;;24.32;6.93;98906.59;5054994;28;20041;-67
2022/01/07 06:25:05;;;;;;;0.75;0.32;;;;;;;24.43;7.04;98912.56;5054689;28;20049;-69
2022/01/07 06:27:31;;;;;;;0.40;0.40;;;;;;;24.51;6.96;98920.00;5054645;28;20541;-68
2022/01/07 06:29:57;;;;;;;0.32;0.32;;;;;;;24.29;7.12;98920.88;5054668;28;20025;-69
2022/01/07 06:32:23;;;;;;;0.30;0.30;;;;;;;24.38;7.06;98932.63;5054697;28;20494;-68
2022/01/07 06:34:49;;;;;;;0.40;0.40;;;;;;;24.28;6.98;98929.38;5054822;28;20052;-69
2022/01/07 06:37:14;;;;;;;0.40;0.40;;;;;;;24.33;7.00;98945.59;5074576;28;20025;-67
2022/01/07 06:39:40;;;;;;;0.65;0.50;;;;;;;24.46;6.90;98950.16;5073963;28;20474;-69
2022/01/07 06:42:05;;;;;;;0.40;0.40;;;;;;;24.46;6.72;98960.28;5055461;28;20059;-68
2022/01/07 06:44:31;;;;;;;0.57;0.57;;;;;;;24.28;6.66;98957.47;5074098;28;20028;-68
2022/01/07 06:46:56;;;;;;;0.20;0.20;;;;;;;24.30;7.03;98960.72;5073886;28;20020;-70
2022/01/07 06:49:22;;;;;;;1.63;0.40;;;;;;;24.45;6.91;98975.84;5073686;28;20031;-69
2022/01/07 06:51:47;;;;;;;0.63;0.40;;;;;;;24.60;6.81;98971.94;5073904;28;20020;-69
2022/01/07 06:54:13;;;;;;;0.30;0.30;;;;;;;24.42;6.86;98975.69;5074317;28;20341;-69
2022/01/07 06:56:40;;;;;;;0.43;0.43;;;;;;;24.35;7.11;98971.50;5073869;28;20021;-68
2022/01/07 06:59:05;;;;;;;0.32;0.32;;;;;;;24.34;7.03;98977.25;5073714;28;20043;-68
2022/01/07 07:01:30;;;;;;;0.40;0.40;;;;;;;24.41;7.23;98974.88;5073680;28;20387;-67
2022/01/07 07:03:56;;;;;;;0.30;0.30;;;;;;;24.53;6.75;98977.81;5073519;28;20032;-68
2022/01/07 07:06:21;;;;;;;0.40;0.40;;;;;;;24.37;7.11;98979.38;5077007;28;20032;-68
2022/01/07 07:08:47;;;;;;;0.30;0.30;;;;;;;24.45;7.02;98980.50;5073968;28;20371;-68
2022/01/07 07:11:12;;;;;;;0.47;0.40;;;;;;;24.60;6.56;98993.00;5073642;28;20375;-68
2022/01/07 07:13:38;;;;;;;1.85;0.60;;;;;;;24.59;6.58;98992.16;5074240;28;20066;-68
2022/01/07 07:16:04;;;;;;;3.55;0.80;;;;;;;24.29;6.81;98994.56;5073525;28;20452;-71
2022/01/07 07:18:29;;;;;;;2.17;0.80;;;;;;;24.25;7.04;98995.50;5073596;28;20048;-69
2022/01/07 07:20:55;;;;;;;2.05;1.10;;;;;;;24.54;6.96;99004.06;5073645;28;20037;-69
2022/01/07 07:23:20;;;;;;;2.78;1.30;;;;;;;24.37;7.08;99002.00;5073291;28;20036;-69
2022/01/07 07:25:45;;;;;;;3.05;1.40;;;;;;;24.32;6.91;98993.94;5073979;28;20020;-69
2022/01/07 07:28:11;;;;;;;2.67;1.38;;;;;;;24.36;6.78;99005.06;5073118;28;20467;-69
2022/01/07 07:30:39;;;;;;;3.88;1.40;;;;;;;24.53;6.77;99009.78;5073309;28;20077;-67
2022/01/07 07:38:11;;;;;;;3.20;1.50;;;;;;;24.37;6.71;99021.13;5053965;28;20028;-67
2022/01/07 07:40:36;;;;;;;3.03;1.30;;;;;;;24.54;6.55;99034.09;5053341;28;20021;-68
2022/01/07 07:43:01;;;;;;;1.88;1.15;;;;;;;24.43;6.78;99027.25;5053504;28;20020;-68
2022/01/07 07:45:27;;;;;;;1.95;1.20;;;;;;;24.42;6.88;99024.81;5053997;28;20467;-67
2022/01/07 07:47:52;;;;;;;2.15;1.13;;;;;;;24.45;6.97;99032.41;5053234;28;20102;-69
2022/01/07 07:50:18;;;;;;;1.70;0.95;;;;;;;24.64;6.58;99032.19;5053136;28;20044;-70
2022/01/07 07:52:43;;;;;;;2.40;0.90;;;;;;;24.74;6.44;99043.66;5053340;28;20025;-69
2022/01/07 07:55:09;;;;;;;1.67;1.00;;;;;;;24.44;6.44;99044.44;5053339;28;20060;-68
2022/01/07 07:57:34;;;;;;;1.90;1.20;;;;;;;24.43;6.38;99053.75;5053668;28;20428;-70
2022/01/07 08:00:00;;;;;;;1.23;0.80;;;;;;;24.57;6.51;99053.69;5053016;28;20472;-69
2022/01/07 08:02:25;;;;;;;1.27;0.80;;;;;;;24.68;6.52;99066.78;5053025;28;20021;-70
2022/01/07 08:04:51;;;;;;;1.27;0.73;;;;;;;24.66;6.56;99074.47;5051827;28;20092;-68
2022/01/07 08:07:17;;;;;;;2.78;0.75;;;;;;;24.60;6.37;99069.47;5052850;28;20442;-68
2022/01/07 08:09:43;;;;;;;1.08;0.98;;;;;;;24.65;6.32;99077.53;5052971;28;20036;-69
2022/01/07 08:17:44;;;;;;;2.30;0.52;;;;;;;24.67;6.29;99081.53;5030479;28;20440;-67
2022/01/07 08:20:10;;;;;;;0.47;0.47;;;;;;;24.69;6.32;99089.44;5014136;28;20037;-67
2022/01/07 08:22:35;;;;;;;0.57;0.50;;;;;;;24.81;6.49;99086.91;5030852;28;20030;-69
2022/01/07 08:25:01;;;;;;;0.70;0.60;;;;;;;24.82;6.35;99088.53;5014235;28;20026;-68
2022/01/07 08:27:26;;;;;;;0.52;0.50;;;;;;;24.71;6.45;99090.72;5031314;28;20038;-69
2022/01/07 08:29:52;;;;;;;0.60;0.60;;;;;;;24.72;6.40;99099.75;5014255;28;20025;-67
2022/01/07 08:35:03;;;;;;;0.60;0.43;;;;;;;24.68;6.55;99101.47;5033212;28;20096;-67
2022/01/07 08:37:29;;;;;;;0.50;0.50;;;;;;;24.59;6.55;99098.69;5052648;28;20091;-70
2022/01/07 08:39:55;;;;;;;0.95;0.45;;;;;;;24.56;6.48;99099.34;5054438;28;20481;-67
2022/01/07 08:42:22;;;;;;;0.50;0.50;;;;;;;24.64;6.59;99108.69;5037644;28;20045;-69
2022/01/07 08:44:47;;;;;;;0.50;0.50;;;;;;;24.67;6.74;99113.53;5054237;28;20136;-68
2022/01/07 08:47:13;;;;;;;2.75;0.50;;;;;;;24.61;6.76;99120.22;5054550;28;20518;-67
2022/01/07 08:49:38;;;;;;;1.65;0.60;;;;;;;24.75;6.74;99120.97;5054207;28;20036;-68
2022/01/07 08:52:04;;;;;;;10.43;1.30;;;;;;;24.85;6.46;99119.88;5067761;28;20509;-68
2022/01/07 08:54:29;;;;;;;5.57;0.82;;;;;;;24.79;6.63;99115.69;5076840;28;20569;-69
2022/01/07 08:56:55;;;;;;;3.90;0.80;;;;;;;24.66;6.54;99129.09;5076221;28;20402;-69
2022/01/07 08:59:21;;;;;;;0.70;0.60;;;;;;;24.64;6.59;99122.34;5077100;28;20025;-68
2022/01/07 09:01:46;;;;;;;1.90;0.65;;;;;;;24.70;6.39;99127.38;5075843;28;20438;-69
2022/01/07 09:04:11;;;;;;;0.55;0.50;;;;;;;24.69;6.42;99133.13;5076333;28;20029;-69
2022/01/07 09:06:37;;;;;;;1.23;0.60;;;;;;;24.66;6.49;99133.75;5078526;28;20032;-69
2022/01/07 09:09:02;;;;;;;1.38;0.60;;;;;;;24.80;6.31;99137.22;5077650;28;20374;-70
2022/01/07 09:11:28;;;;;;;1.00;0.60;;;;;;;24.92;6.37;99131.16;5075772;28;20036;-68
2022/01/07 09:13:53;;;;;;;3.03;0.68;;;;;;;24.81;6.49;99147.03;5075773;28;20031;-68
2022/01/07 09:16:23;;;;;;;0.77;0.60;;;;;;;24.60;6.58;99140.47;5076028;28;20024;-68
2022/01/07 09:18:49;;;;;;;1.05;0.70;;;;;;;24.67;6.29;99129.91;5075744;28;20115;-68
2022/01/07 09:21:14;;;;;;;0.57;0.57;;;;;;;24.84;6.35;99134.69;5075768;28;20032;-68
2022/01/07 09:23:41;;;;;;;2.08;0.50;;;;;;;24.82;6.48;99148.66;5075246;28;20450;-68
2022/01/07 09:26:07;;;;;;;0.75;0.40;;;;;;;24.77;6.46;99150.69;5075335;28;20031;-69
2022/01/07 09:28:33;;;;;;;0.68;0.45;;;;;;;24.90;6.47;99153.34;5075914;28;20036;-71
2022/01/07 09:30:58;;;;;;;0.40;0.40;;;;;;;25.03;6.38;99153.59;5075273;28;20486;-68
2022/01/07 09:33:24;;;;;;;0.40;0.40;;;;;;;25.03;6.64;99154.38;5074157;28;20037;-69
2022/01/07 09:35:51;;;;;;;0.75;0.50;;;;;;;24.97;6.54;99168.50;5072188;28;20055;-69
2022/01/07 09:38:16;;;;;;;0.90;0.50;;;;;;;24.97;6.61;99163.03;5055532;28;20037;-68
2022/01/07 09:40:41;;;;;;;0.75;0.50;;;;;;;25.09;6.66;99166.81;5055488;28;20032;-68
2022/01/07 09:43:07;;;;;;;0.88;0.63;;;;;;;25.15;6.46;99172.94;5054449;28;20029;-69
2022/01/07 09:45:34;;;;;;;0.68;0.50;;;;;;;25.08;6.25;99172.59;5054467;28;20467;-69
2022/01/07 09:48:01;;;;;;;0.90;0.60;;;;;;;25.09;6.53;99185.09;5054570;28;20120;-67
2022/01/07 09:50:27;;;;;;;0.50;0.50;;;;;;;25.11;6.29;99191.06;5055200;28;20025;-68
2022/01/07 09:52:52;;;;;;;0.40;0.40;;;;;;;25.05;6.39;99195.06;5055328;28;20533;-68
2022/01/07 09:55:18;;;;;;;0.40;0.40;;;;;;;25.07;6.16;99201.03;5054964;28;20487;-69
2022/01/07 09:57:43;;;;;;;0.45;0.45;;;;;;;25.06;6.32;99202.13;5054790;28;20075;-68
2022/01/07 10:00:09;;;;;;;1.40;0.60;;;;;;;25.10;6.34;99203.13;5054941;28;20035;-68
2022/01/07 10:02:35;;;;;;;1.60;0.40;;;;;;;25.27;6.02;99208.72;5055746;28;20416;-68
2022/01/07 10:05:20;;;;;;;0.57;0.50;;;;;;;25.02;6.42;99201.94;5055312;28;20035;-68
2022/01/07 10:07:46;;;;;;;0.50;0.50;;;;;;;25.16;6.12;99223.75;5054295;28;20041;-69
2022/01/07 10:10:17;;;;;;;0.50;0.40;;;;;;;25.32;5.95;99226.09;5055053;28;20021;-69
2022/01/07 10:12:52;;;;;;;0.50;0.50;;;;;;;25.19;6.13;99223.13;5055146;28;20024;-68
2022/01/07 10:15:25;;;;;;;0.57;0.57;;;;;;;25.24;6.02;99220.25;5054981;28;20094;-68
2022/01/07 10:17:56;;;;;;;0.50;0.40;;;;;;;25.29;6.32;99227.56;5055771;28;20060;-70
2022/01/07 10:20:33;;;;;;;1.65;0.43;;;;;;;25.47;5.97;99237.47;5057931;28;20037;-70
2022/01/07 10:23:01;;;;;;;1.40;0.52;;;;;;;25.52;6.04;99239.22;5058188;28;20040;-70
2022/01/07 10:25:31;;;;;;;1.55;0.60;;;;;;;25.45;5.92;99241.63;5059705;28;20024;-69
2022/01/07 10:28:07;;;;;;;7.47;0.80;;;;;;;25.38;6.23;99246.72;5058644;28;20052;-69
2022/01/07 10:31:02;;;;;;;0.65;0.40;;;;;;;25.55;6.02;99249.53;5053561;28;20032;-69
2022/01/07 10:33:31;;;;;;;1.40;0.50;;;;;;;25.46;6.16;99259.66;5031966;28;20048;-68
2022/01/07 10:35:58;;;;;;;4.22;0.85;;;;;;;25.32;6.13;99258.91;5031914;28;20056;-69
2022/01/07 10:38:25;;;;;;;1.77;0.70;;;;;;;25.42;6.25;99258.66;5032329;28;20064;-68
2022/01/07 10:40:52;;;;;;;2.75;0.85;;;;;;;25.44;5.92;99262.69;5032045;28;20029;-69
2022/01/07 10:43:21;;;;;;;4.30;0.60;;;;;;;25.45;6.01;99263.50;5031930;28;20104;-69
2022/01/07 10:45:52;;;;;;;4.22;0.60;;;;;;;25.42;5.86;99266.84;5031711;28;20030;-69
2022/01/07 10:48:23;;;;;;;1.73;0.45;;;;;;;25.39;5.92;99270.22;5031706;28;20125;-70
2022/01/07 10:50:50;;;;;;;1.20;0.50;;;;;;;25.29;6.23;99277.56;5032031;28;20112;-69
2022/01/07 10:53:17;;;;;;;1.20;0.68;;;;;;;25.32;6.08;99287.09;5031800;28;20103;-69
2022/01/07 10:56:03;;;;;;;0.80;0.50;;;;;;;25.45;6.16;99291.66;5031606;28;20032;-69
2022/01/07 10:58:28;;;;;;;2.53;0.50;;;;;;;25.17;6.22;99293.72;5030868;28;20132;-69
2022/01/07 11:00:54;;;;;;;0.70;0.50;;;;;;;25.38;5.88;99295.97;5031275;28;20057;-70
2022/01/07 11:03:19;;;;;;;1.73;0.50;;;;;;;25.36;6.12;99292.75;5031855;28;20395;-70
2022/01/07 11:05:45;;;;;;;0.90;0.50;;;;;;;25.18;6.13;99305.44;5031286;28;20573;-69
2022/01/07 11:08:12;;;;;;;0.60;0.60;;;;;;;25.21;6.06;99307.56;5015014;28;20040;-69
2022/01/07 11:10:37;;;;;;;0.65;0.60;;;;;;;25.36;6.14;99320.88;5048457;28;20033;-69
2022/01/07 11:13:03;;;;;;;0.73;0.50;;;;;;;25.22;6.09;99318.19;5052078;28;20070;-67
2022/01/07 11:15:28;;;;;;;0.88;0.50;;;;;;;25.37;6.21;99327.16;5053378;28;20040;-70
2022/01/07 11:17:57;;;;;;;0.85;0.50;;;;;;;25.22;6.06;99326.38;5053197;28;20056;-69
2022/01/07 11:20:24;;;;;;;0.60;0.60;;;;;;;25.25;6.06;99331.28;5053569;28;20059;-71
2022/01/07 11:22:49;;;;;;;0.93;0.43;;;;;;;25.36;5.95;99331.03;5052245;28;20096;-71
2022/01/07 11:25:15;;;;;;;0.40;0.40;;;;;;;25.25;6.37;99338.63;5053464;28;20033;-70
2022/01/07 11:27:54;;;;;;;0.50;0.50;;;;;;;25.22;6.22;99337.31;5053378;28;20021;-69
2022/01/07 11:30:23;;;;;;;0.35;0.32;;;;;;;25.16;6.39;99333.09;5053633;28;20033;-70
2022/01/07 11:32:52;;;;;;;0.50;0.50;;;;;;;25.39;6.13;99335.84;5059517;28;20067;-71
2022/01/07 11:35:18;;;;;;;0.50;0.50;;;;;;;25.26;6.34;99341.06;5035292;28;20383;-70
2022/01/07 11:37:59;;;;;;;0.60;0.60;;;;;;;25.36;6.20;99336.50;5068461;28;20039;-70
2022/01/07 11:40:34;;;;;;;1.33;0.60;;;;;;;25.51;6.07;99341.56;5074551;28;20085;-69
2022/01/07 11:43:24;;;;;;;0.40;0.40;;;;;;;25.44;5.97;99350.22;5073180;28;20382;-70
2022/01/07 11:45:49;;;;;;;1.10;0.43;;;;;;;25.37;6.34;99343.56;5073660;28;20029;-70
2022/01/07 11:48:24;;;;;;;0.47;0.47;;;;;;;25.43;6.18;99343.13;5073795;28;20027;-70
2022/01/07 11:50:53;;;;;;;0.30;0.30;;;;;;;25.46;5.92;99355.38;5072724;28;20048;-69